Hauptseite
METAR-TAF:

METAR-TAF

Flughäfen :

Longyearbyen, Norwegen

Flughafen Longyearbyen

Breite: 78-15N, Länge: 015-28E, Höhe: 2 m

Beobachtung

Neuester Wetterbericht von vor 26 Minuten, um 14:20 UTC
Wind 20 kt aus Ost/Südost
Temperatur -6°C
Luftfeuchtigkeit 62%
Luftdruck 1028 hPa
Sichtweite 10 km oder mehr
Leicht bewölkt in der Höhe von 2500 ft

METAR: ENSB 241420Z 11020KT 9999 FEW025 M06/M12 Q1028 RMK WIND 1400FT 10023KT

Zeit: 15:46 (14:46 UTC)

Prognose

Gültige Prognose vom 24 um 12 UTC bis 25 um 12 UTC
Wind 15 kt aus Ost
Sichtweite 10 km oder mehr
Aufgelockert bewölkt in der Höhe von 3000 ft

TAF: ENSB 2412/2512 10015KT 9999 SCT030

Wetterbeobachtungen und Prognosen von mehr als 4000 Flughäfen (METAR und TAF Bericht).

Die verfügbaren Stationen werden durch gelbe und rote Markierungen auf der Karte dargestellt.

Führen Sie die Maus auf sie, um den Namen der Station zu sehen.

Darauf klicken, um die Beobachtung von Wetterbeobachtungen und Prognosen zu sehen.

Um die Karte zu ändern : klicken Sie auf den grünen Tasten mit einem schwarzen Kreuz Zum Vergrößern, auf den grünen Button mit einem Gedankenstrich zu verkleinern, oder auf die grünen Pfeile für benachbarte Karten.


METAR-TAF: